Time;durP1;ratioP1;P1;durP2;ratioP2;P2;SDS_P1;SDS_P2;PMS_P1;PMS_P2;Temp;Humidity;BMP_temperature;BMP_pressure;BME280_temperature;BME280_humidity;BME280_pressure;Samples;Min_cycle;Max_cycle;Signal;HPM_P1;HPM_P2
2023/09/23 00:00:40;;;;;;;4.75;0.98;;;14.00;99.90;;;;;;5033909;28;20224;-83
2023/09/23 00:03:08;;;;;;;2.20;1.10;;;14.00;99.90;;;;;;5035027;28;20178;-84
2023/09/23 00:05:35;;;;;;;2.75;1.02;;;14.00;99.90;;;;;;5033503;28;20178;-83
2023/09/23 00:08:01;;;;;;;3.03;1.00;;;14.00;99.90;;;;;;5033487;28;20210;-83
2023/09/23 00:10:27;;;;;;;1.23;0.90;;;13.90;99.90;;;;;;5033175;28;20177;-82
2023/09/23 00:12:55;;;;;;;5.07;0.98;;;13.90;99.90;;;;;;5034813;28;20175;-83
2023/09/23 00:15:21;;;;;;;1.77;0.90;;;13.80;99.90;;;;;;5033500;28;20640;-83
2023/09/23 00:17:47;;;;;;;3.33;0.88;;;13.90;99.90;;;;;;5033722;28;20179;-83
2023/09/23 00:20:16;;;;;;;2.10;0.80;;;13.80;99.90;;;;;;5034545;28;20177;-83
2023/09/23 00:22:45;;;;;;;1.92;0.95;;;13.80;99.90;;;;;;5033455;28;20526;-82
2023/09/23 00:25:10;;;;;;;1.13;0.70;;;13.80;99.90;;;;;;5033350;28;20575;-84
2023/09/23 00:27:36;;;;;;;1.00;0.80;;;13.90;99.90;;;;;;5033353;28;20220;-84
2023/09/23 00:30:04;;;;;;;1.67;0.80;;;13.80;99.90;;;;;;5034590;28;20601;-81
2023/09/23 00:32:32;;;;;;;2.15;0.57;;;13.80;99.90;;;;;;5034471;28;20557;-83
2023/09/23 00:34:59;;;;;;;2.35;0.60;;;13.80;99.90;;;;;;5033046;28;20170;-85
2023/09/23 00:37:25;;;;;;;1.25;0.52;;;13.80;99.90;;;;;;5034459;28;20175;-82
2023/09/23 00:39:51;;;;;;;1.67;0.50;;;13.70;99.90;;;;;;5033159;28;20197;-84
2023/09/23 00:42:19;;;;;;;3.13;0.70;;;13.70;99.90;;;;;;5034128;28;20206;-84
2023/09/23 00:44:45;;;;;;;1.17;0.50;;;13.70;99.90;;;;;;5034197;28;20313;-83
2023/09/23 00:47:15;;;;;;;1.02;0.50;;;13.70;99.90;;;;;;5034313;28;20190;-83
2023/09/23 00:49:43;;;;;;;1.83;0.77;;;13.70;99.90;;;;;;5034336;28;20201;-81
2023/09/23 00:52:10;;;;;;;0.45;0.40;;;13.60;99.90;;;;;;5033962;28;20172;-84
2023/09/23 00:54:41;;;;;;;1.63;0.68;;;13.60;99.90;;;;;;5034274;28;20175;-83
2023/09/23 00:57:07;;;;;;;1.83;0.45;;;13.60;99.90;;;;;;5032906;28;20171;-83
2023/09/23 00:59:36;;;;;;;1.42;0.50;;;13.50;99.90;;;;;;5034148;28;20258;-83
2023/09/23 01:02:03;;;;;;;0.80;0.50;;;13.50;99.90;;;;;;5034070;28;20210;-84
2023/09/23 01:04:29;;;;;;;0.88;0.50;;;13.50;99.90;;;;;;5034344;28;20167;-85
2023/09/23 01:06:55;;;;;;;1.05;0.43;;;13.50;99.90;;;;;;5032337;28;20643;-81
2023/09/23 01:09:22;;;;;;;3.30;0.63;;;13.40;99.90;;;;;;5034092;28;20632;-83
2023/09/23 01:11:51;;;;;;;1.15;0.38;;;13.40;99.90;;;;;;5032580;28;20248;-81
2023/09/23 01:14:21;;;;;;;0.80;0.50;;;13.40;99.90;;;;;;5032603;28;20178;-84
2023/09/23 01:16:54;;;;;;;0.70;0.52;;;13.40;99.90;;;;;;5032641;28;20178;-82
2023/09/23 01:19:21;;;;;;;2.60;0.60;;;13.30;99.90;;;;;;5034106;28;20166;-83
2023/09/23 01:21:49;;;;;;;2.72;0.60;;;13.40;99.90;;;;;;5033758;28;20218;-86
2023/09/23 01:24:18;;;;;;;0.55;0.43;;;13.30;99.90;;;;;;5037948;28;20482;-83
2023/09/23 01:26:51;;;;;;;1.20;0.50;;;13.30;99.90;;;;;;5037861;28;20178;-84
2023/09/23 01:29:23;;;;;;;0.73;0.50;;;13.30;99.90;;;;;;5038062;28;20506;-84
2023/09/23 01:32:19;;;;;;;2.42;0.80;;;13.30;99.90;;;;;;5036542;28;20225;-84
2023/09/23 01:34:45;;;;;;;1.08;0.50;;;13.30;99.90;;;;;;5037946;28;20249;-84
2023/09/23 01:37:12;;;;;;;2.60;0.50;;;13.20;99.90;;;;;;5038240;28;20217;-90
2023/09/23 01:39:41;;;;;;;1.02;0.50;;;13.20;99.90;;;;;;5037574;28;20266;-89
2023/09/23 01:42:07;;;;;;;0.90;0.57;;;13.20;99.90;;;;;;5037111;28;20656;-84
2023/09/23 01:44:33;;;;;;;1.30;0.60;;;13.20;99.90;;;;;;5037444;28;20222;-87
2023/09/23 01:47:01;;;;;;;3.47;0.60;;;13.20;99.90;;;;;;5038456;28;20605;-91
2023/09/23 01:49:27;;;;;;;1.38;0.60;;;13.20;99.90;;;;;;5038340;28;20167;-86
2023/09/23 01:51:52;;;;;;;0.55;0.40;;;13.10;99.90;;;;;;5037910;28;20175;-89
2023/09/23 01:54:18;;;;;;;1.33;0.60;;;13.10;99.90;;;;;;5038319;28;20568;-87
2023/09/23 01:56:44;;;;;;;1.25;0.32;;;13.10;99.90;;;;;;5038151;28;20648;-90
2023/09/23 01:59:12;;;;;;;3.00;0.70;;;13.10;99.90;;;;;;5037845;28;20278;-91
2023/09/23 02:01:40;;;;;;;3.63;0.77;;;13.00;99.90;;;;;;5037500;28;20198;-82
2023/09/23 02:04:09;;;;;;;0.95;0.50;;;12.90;99.90;;;;;;5036025;28;20551;-82
2023/09/23 02:06:43;;;;;;;1.50;0.57;;;13.00;99.90;;;;;;5037060;28;20179;-84
2023/09/23 02:09:09;;;;;;;0.82;0.47;;;12.90;99.90;;;;;;5035955;28;20170;-82
2023/09/23 02:11:39;;;;;;;2.22;0.52;;;12.90;99.90;;;;;;5036851;28;20185;-81
2023/09/23 02:14:05;;;;;;;3.47;0.73;;;12.80;99.90;;;;;;5035755;28;20643;-82
2023/09/23 02:16:31;;;;;;;1.00;0.50;;;12.80;99.90;;;;;;5036934;28;20238;-82
2023/09/23 02:18:57;;;;;;;1.95;0.60;;;12.80;99.90;;;;;;5035909;28;20521;-82
2023/09/23 02:21:23;;;;;;;0.85;0.35;;;12.80;99.90;;;;;;5036668;28;20210;-83
2023/09/23 02:23:49;;;;;;;3.83;0.70;;;12.90;99.90;;;;;;5036747;28;20177;-83
2023/09/23 02:26:15;;;;;;;1.08;0.55;;;12.80;99.90;;;;;;5036792;28;20178;-84
2023/09/23 02:28:41;;;;;;;2.20;0.70;;;12.80;99.90;;;;;;5036770;28;20178;-83
2023/09/23 02:31:06;;;;;;;1.35;0.52;;;12.90;99.90;;;;;;5036763;28;20167;-83
2023/09/23 02:33:32;;;;;;;1.75;0.90;;;12.80;99.90;;;;;;5036290;28;20174;-83
2023/09/23 02:36:00;;;;;;;2.38;0.80;;;12.90;99.90;;;;;;5035150;28;20179;-82
2023/09/23 02:38:26;;;;;;;1.60;0.50;;;12.90;99.90;;;;;;5035263;28;20241;-83
2023/09/23 02:40:52;;;;;;;2.22;0.80;;;12.90;99.90;;;;;;5036349;28;20198;-82
2023/09/23 02:43:19;;;;;;;2.92;0.60;;;12.80;99.90;;;;;;5034920;28;20575;-82
2023/09/23 02:45:47;;;;;;;3.42;0.60;;;12.80;99.90;;;;;;5035275;28;20187;-84
2023/09/23 02:48:16;;;;;;;1.92;0.60;;;12.80;99.90;;;;;;5036536;28;20178;-83
2023/09/23 02:50:42;;;;;;;0.80;0.43;;;12.80;99.90;;;;;;5036140;28;20249;-84
2023/09/23 02:53:10;;;;;;;2.38;0.70;;;12.90;99.90;;;;;;5035765;28;20586;-85
2023/09/23 02:55:41;;;;;;;1.30;0.50;;;12.80;99.90;;;;;;5037477;28;20262;-90
2023/09/23 02:58:07;;;;;;;1.27;0.60;;;12.80;99.90;;;;;;5036217;28;20664;-89
2023/09/23 03:00:34;;;;;;;2.03;0.55;;;12.90;99.90;;;;;;5036220;28;20213;-90
2023/09/23 03:03:08;;;;;;;2.10;0.57;;;12.80;99.90;;;;;;5037055;28;20205;-90
2023/09/23 03:05:44;;;;;;;1.58;0.75;;;12.80;99.90;;;;;;5035995;28;20178;-90
2023/09/23 03:08:13;;;;;;;1.98;0.70;;;12.80;99.90;;;;;;5036255;28;20256;-89
2023/09/23 03:10:42;;;;;;;1.40;0.60;;;12.80;99.90;;;;;;5037351;28;20215;-88
2023/09/23 03:13:10;;;;;;;2.58;0.63;;;12.80;99.90;;;;;;5032942;28;20187;-91
2023/09/23 03:15:53;;;;;;;2.15;0.85;;;12.90;99.90;;;;;;5016039;28;20186;-90
2023/09/23 03:18:28;;;;;;;1.73;0.73;;;12.80;99.90;;;;;;5017213;28;20194;-91
2023/09/23 03:20:55;;;;;;;1.58;0.68;;;12.90;99.90;;;;;;5016302;28;20533;-85
2023/09/23 03:23:21;;;;;;;1.60;0.80;;;12.90;99.90;;;;;;5015919;28;20167;-82
2023/09/23 03:25:48;;;;;;;1.70;0.60;;;13.00;99.90;;;;;;5014779;28;20689;-83
2023/09/23 03:28:17;;;;;;;1.63;0.60;;;12.90;99.90;;;;;;5014564;28;20268;-85
2023/09/23 03:30:48;;;;;;;1.20;0.60;;;12.90;99.90;;;;;;5015834;28;20218;-83
2023/09/23 03:33:21;;;;;;;3.55;0.82;;;12.90;99.90;;;;;;5014478;28;20175;-82
2023/09/23 03:35:47;;;;;;;1.00;0.70;;;12.90;99.90;;;;;;5014292;28;20569;-84
2023/09/23 03:38:13;;;;;;;3.10;0.90;;;12.90;99.90;;;;;;5014360;28;20256;-82
2023/09/23 03:40:38;;;;;;;2.92;0.60;;;12.90;99.90;;;;;;5015590;28;20203;-84
2023/09/23 03:43:05;;;;;;;1.20;0.70;;;12.90;99.90;;;;;;5017915;28;21260;-84
2023/09/23 03:45:35;;;;;;;2.35;0.70;;;12.90;99.90;;;;;;5033295;28;20171;-84
2023/09/23 03:48:01;;;;;;;2.28;0.70;;;12.90;99.90;;;;;;5035321;28;20178;-82
2023/09/23 03:50:27;;;;;;;3.97;0.70;;;12.80;99.90;;;;;;5033843;28;20250;-83
2023/09/23 03:52:52;;;;;;;1.67;0.88;;;12.80;99.90;;;;;;5034916;28;20317;-83
2023/09/23 03:55:18;;;;;;;1.90;0.82;;;12.80;99.90;;;;;;5035222;28;20174;-82
2023/09/23 03:57:46;;;;;;;1.58;0.70;;;12.70;99.90;;;;;;5034772;28;20182;-84
2023/09/23 04:00:26;;;;;;;1.40;0.77;;;12.70;99.90;;;;;;5034041;28;20177;-82
2023/09/23 04:02:52;;;;;;;2.10;0.70;;;12.70;99.90;;;;;;5035389;28;20170;-82
2023/09/23 04:05:20;;;;;;;1.88;0.77;;;12.70;99.90;;;;;;5033865;28;20189;-84
2023/09/23 04:07:49;;;;;;;1.58;0.50;;;12.70;99.90;;;;;;5033410;28;20218;-83
2023/09/23 04:10:18;;;;;;;2.92;1.10;;;12.60;99.90;;;;;;5033503;28;20564;-84
2023/09/23 04:12:43;;;;;;;1.90;1.00;;;12.60;99.90;;;;;;5050318;28;20920;-82
2023/09/23 04:15:09;;;;;;;0.93;0.77;;;12.60;99.90;;;;;;5015165;28;20266;-83
2023/09/23 04:17:39;;;;;;;3.00;0.73;;;12.60;99.90;;;;;;5014980;28;20688;-82
2023/09/23 04:20:14;;;;;;;3.78;1.00;;;12.60;99.90;;;;;;5015103;28;20589;-84
2023/09/23 04:22:41;;;;;;;2.42;0.77;;;12.60;99.90;;;;;;5014552;28;20238;-83
2023/09/23 04:25:08;;;;;;;1.58;0.80;;;12.60;99.90;;;;;;5015018;28;20179;-84
2023/09/23 04:27:36;;;;;;;4.30;0.90;;;12.50;99.90;;;;;;5014884;28;20178;-83
2023/09/23 04:30:09;;;;;;;1.40;0.80;;;12.50;99.90;;;;;;5013624;28;20168;-82
2023/09/23 04:32:38;;;;;;;1.70;0.75;;;12.50;99.90;;;;;;5014590;28;20582;-82
2023/09/23 04:35:06;;;;;;;1.30;0.68;;;12.60;99.90;;;;;;5014782;28;20198;-82
2023/09/23 04:37:36;;;;;;;2.20;0.70;;;12.60;99.90;;;;;;5014256;28;20633;-83
2023/09/23 04:40:06;;;;;;;1.65;0.70;;;12.60;99.90;;;;;;5014562;28;20168;-84
2023/09/23 04:42:32;;;;;;;1.23;0.80;;;12.60;99.90;;;;;;5013041;28;20653;-82
2023/09/23 04:44:58;;;;;;;1.27;0.95;;;12.60;99.90;;;;;;5032464;28;20233;-86
2023/09/23 04:47:23;;;;;;;1.45;0.70;;;12.60;99.90;;;;;;5034328;28;20261;-84
2023/09/23 04:49:49;;;;;;;2.45;1.10;;;12.60;99.90;;;;;;5029442;28;20906;-82
2023/09/23 04:52:15;;;;;;;0.95;0.80;;;12.60;99.90;;;;;;5032180;28;20629;-84
2023/09/23 04:54:42;;;;;;;2.10;0.90;;;12.60;99.90;;;;;;5032749;28;20182;-83
2023/09/23 04:57:09;;;;;;;4.53;0.88;;;12.60;99.90;;;;;;5031818;28;20513;-83
2023/09/23 04:59:35;;;;;;;1.20;0.88;;;12.60;99.90;;;;;;5033288;28;20245;-82
2023/09/23 05:02:00;;;;;;;1.58;0.70;;;12.60;99.90;;;;;;5032771;28;20298;-83
2023/09/23 05:04:26;;;;;;;2.17;0.80;;;12.60;99.90;;;;;;5034099;28;20182;-80
2023/09/23 05:06:52;;;;;;;1.75;1.05;;;12.60;99.90;;;;;;5033664;28;20601;-82
2023/09/23 05:09:18;;;;;;;1.55;0.68;;;12.70;99.90;;;;;;5033961;28;20177;-82
2023/09/23 05:11:43;;;;;;;2.03;0.93;;;12.70;99.90;;;;;;5034014;28;20181;-82
2023/09/23 05:14:10;;;;;;;1.67;0.90;;;12.70;99.90;;;;;;5033913;28;20183;-82
2023/09/23 05:16:35;;;;;;;2.67;1.20;;;12.70;99.90;;;;;;5033955;28;20175;-83
2023/09/23 05:19:01;;;;;;;1.35;0.90;;;12.70;99.90;;;;;;5033949;28;20170;-82
2023/09/23 05:21:27;;;;;;;1.25;1.05;;;12.70;99.90;;;;;;5032689;28;20217;-83
2023/09/23 05:23:53;;;;;;;2.40;1.17;;;12.80;99.90;;;;;;5033713;28;20174;-82
2023/09/23 05:26:19;;;;;;;1.58;1.30;;;12.80;99.90;;;;;;5032501;28;20182;-82
2023/09/23 05:28:45;;;;;;;1.10;0.90;;;12.80;99.90;;;;;;5033927;28;20166;-84
2023/09/23 05:31:13;;;;;;;1.20;1.10;;;12.80;99.90;;;;;;5032556;28;20177;-82
2023/09/23 05:33:40;;;;;;;1.50;1.05;;;12.80;99.90;;;;;;5033564;28;20628;-82
2023/09/23 05:36:06;;;;;;;1.40;1.13;;;12.90;99.90;;;;;;5033450;28;20177;-82
2023/09/23 05:38:36;;;;;;;2.67;1.30;;;12.90;99.90;;;;;;5033648;28;20174;-82
2023/09/23 05:41:03;;;;;;;1.48;1.08;;;12.90;99.90;;;;;;5033702;28;20195;-83
2023/09/23 05:43:29;;;;;;;2.28;1.20;;;12.90;99.90;;;;;;5033540;28;20230;-82
2023/09/23 05:45:55;;;;;;;3.83;1.50;;;13.00;99.90;;;;;;5033789;28;20174;-83
2023/09/23 05:48:22;;;;;;;2.78;1.30;;;12.90;99.90;;;;;;5033525;28;20694;-86
2023/09/23 05:50:49;;;;;;;1.40;1.30;;;12.90;99.90;;;;;;5032457;28;20179;-83
2023/09/23 05:53:15;;;;;;;1.20;1.10;;;12.90;99.90;;;;;;5032300;28;20178;-82
2023/09/23 05:55:40;;;;;;;2.58;1.30;;;12.90;99.90;;;;;;5033630;28;20170;-83
2023/09/23 05:58:06;;;;;;;2.10;1.50;;;12.90;99.90;;;;;;5032206;28;20185;-82
2023/09/23 06:00:32;;;;;;;2.05;1.10;;;12.80;99.90;;;;;;5031680;28;20190;-88
2023/09/23 06:02:58;;;;;;;1.50;1.35;;;12.90;99.90;;;;;;5032246;28;20194;-84
2023/09/23 06:05:24;;;;;;;2.60;1.27;;;12.90;99.90;;;;;;5032248;28;20202;-83
2023/09/23 06:07:50;;;;;;;2.35;1.55;;;12.90;99.90;;;;;;5033558;28;20210;-86
2023/09/23 06:10:17;;;;;;;3.40;1.80;;;12.90;99.90;;;;;;5036141;28;20269;-83
2023/09/23 06:12:43;;;;;;;1.92;1.55;;;12.80;99.90;;;;;;5036084;28;20321;-84
2023/09/23 06:15:10;;;;;;;3.63;1.98;;;12.80;99.90;;;;;;5036100;28;20625;-85
2023/09/23 06:17:37;;;;;;;2.00;1.80;;;12.80;99.90;;;;;;5036967;28;20167;-89
2023/09/23 06:20:03;;;;;;;2.53;2.33;;;12.70;99.90;;;;;;5037194;28;20297;-83
2023/09/23 06:22:32;;;;;;;2.60;2.40;;;12.70;99.90;;;;;;5036340;28;20218;-85
2023/09/23 06:24:58;;;;;;;3.83;2.63;;;12.80;99.90;;;;;;5037545;28;20171;-87
2023/09/23 06:27:25;;;;;;;3.20;2.90;;;12.80;99.90;;;;;;5037548;28;20163;-85
2023/09/23 06:29:53;;;;;;;3.30;3.05;;;12.80;99.90;;;;;;5022252;28;20270;-84
2023/09/23 06:32:18;;;;;;;4.22;3.25;;;12.90;99.90;;;;;;5016150;28;20175;-86
2023/09/23 06:34:44;;;;;;;4.28;3.88;;;13.00;99.90;;;;;;5032420;28;20275;-84
2023/09/23 06:37:10;;;;;;;5.05;3.63;;;12.90;99.90;;;;;;5017296;28;20167;-88
2023/09/23 06:39:41;;;;;;;5.20;4.40;;;12.90;99.90;;;;;;5017654;28;20254;-82
2023/09/23 06:42:07;;;;;;;6.70;4.07;;;13.00;99.90;;;;;;5032863;28;20684;-88
2023/09/23 06:44:33;;;;;;;4.82;4.18;;;13.00;99.90;;;;;;5016670;28;20669;-82
2023/09/23 06:47:01;;;;;;;5.18;4.45;;;13.10;99.90;;;;;;5016670;28;20225;-85
2023/09/23 06:49:26;;;;;;;5.15;4.68;;;13.10;99.90;;;;;;5015511;28;20183;-88
2023/09/23 06:51:52;;;;;;;5.78;4.50;;;13.20;99.90;;;;;;5017060;28;20254;-87
2023/09/23 06:54:18;;;;;;;6.65;4.50;;;13.30;99.90;;;;;;5021778;28;20614;-81
2023/09/23 06:56:44;;;;;;;5.18;4.60;;;13.30;99.90;;;;;;5034806;28;20209;-82
2023/09/23 06:59:10;;;;;;;6.22;4.88;;;13.40;99.90;;;;;;5034979;28;20206;-82
2023/09/23 07:01:36;;;;;;;6.10;5.50;;;13.40;99.90;;;;;;5034763;28;20252;-84
2023/09/23 07:04:02;;;;;;;5.63;4.85;;;13.40;99.90;;;;;;5036218;28;20229;-82
2023/09/23 07:06:28;;;;;;;7.40;5.13;;;13.50;99.90;;;;;;5036202;28;20221;-81
2023/09/23 07:08:54;;;;;;;5.95;4.70;;;13.60;99.90;;;;;;5035981;28;20220;-81
2023/09/23 07:11:20;;;;;;;6.00;5.40;;;13.60;99.90;;;;;;5035709;28;20163;-81
2023/09/23 07:13:46;;;;;;;5.80;5.20;;;13.60;99.90;;;;;;5035653;28;20178;-88
2023/09/23 07:16:15;;;;;;;6.80;5.55;;;13.60;99.90;;;;;;5034698;28;20204;-83
2023/09/23 07:18:41;;;;;;;6.13;5.53;;;13.70;99.90;;;;;;5035859;28;20257;-81
2023/09/23 07:21:07;;;;;;;6.50;5.90;;;13.70;99.90;;;;;;5034364;28;20897;-82
2023/09/23 07:23:32;;;;;;;5.72;5.22;;;13.80;99.90;;;;;;5028060;28;20178;-80
2023/09/23 07:25:59;;;;;;;6.63;6.03;;;13.80;99.90;;;;;;5035300;28;20186;-82
2023/09/23 07:28:25;;;;;;;6.40;5.80;;;13.80;99.90;;;;;;5035614;28;20171;-82
2023/09/23 07:30:51;;;;;;;5.97;5.18;;;13.80;99.90;;;;;;5035780;28;20209;-83
2023/09/23 07:33:16;;;;;;;6.65;5.38;;;13.80;99.90;;;;;;5035512;28;20179;-83
2023/09/23 07:35:43;;;;;;;5.88;5.38;;;13.70;99.90;;;;;;5034362;28;20178;-83
2023/09/23 07:38:09;;;;;;;5.97;5.30;;;13.80;99.90;;;;;;5034195;28;20336;-82
2023/09/23 07:40:39;;;;;;;6.55;5.50;;;13.80;99.90;;;;;;5035110;28;20249;-82
2023/09/23 07:43:05;;;;;;;5.68;4.90;;;13.80;99.90;;;;;;5035181;28;20673;-83
2023/09/23 07:45:30;;;;;;;5.65;4.50;;;13.80;99.90;;;;;;5035448;28;20220;-83
2023/09/23 07:47:56;;;;;;;7.38;4.63;;;13.90;99.90;;;;;;5035236;28;20617;-82
2023/09/23 07:50:23;;;;;;;4.75;4.30;;;14.00;99.90;;;;;;5034158;28;20221;-83
2023/09/23 07:52:49;;;;;;;5.03;3.97;;;14.00;99.90;;;;;;5034960;28;20175;-82
2023/09/23 07:55:15;;;;;;;5.03;4.50;;;14.00;99.90;;;;;;5033478;28;20183;-82
2023/09/23 07:57:41;;;;;;;4.95;4.55;;;14.00;99.90;;;;;;5033531;28;20201;-82
2023/09/23 08:00:10;;;;;;;5.55;4.38;;;14.00;99.90;;;;;;5035101;28;20575;-82
2023/09/23 08:02:36;;;;;;;4.53;4.00;;;14.10;99.90;;;;;;5033692;28;20236;-82
2023/09/23 08:05:05;;;;;;;6.43;4.72;;;14.20;99.90;;;;;;5033719;28;20182;-82
2023/09/23 08:07:32;;;;;;;6.47;5.28;;;14.30;99.90;;;;;;5034846;28;20647;-82
2023/09/23 08:09:58;;;;;;;7.10;4.82;;;14.30;99.90;;;;;;5033240;28;20654;-81
2023/09/23 08:12:24;;;;;;;5.85;5.25;;;14.40;99.90;;;;;;5034620;28;20224;-82
2023/09/23 08:14:51;;;;;;;5.18;4.72;;;14.30;99.90;;;;;;5034841;28;20228;-81
2023/09/23 08:17:17;;;;;;;4.85;4.35;;;14.40;99.90;;;;;;5034741;28;20212;-82
2023/09/23 08:19:44;;;;;;;5.03;4.53;;;14.50;99.90;;;;;;5033756;28;20623;-82
2023/09/23 08:22:10;;;;;;;5.63;4.97;;;14.60;99.90;;;;;;5033282;28;20217;-83
2023/09/23 08:24:37;;;;;;;7.82;4.90;;;14.60;99.90;;;;;;5029016;28;20217;-83
2023/09/23 08:27:03;;;;;;;5.40;4.40;;;14.70;99.90;;;;;;5013665;28;20171;-82
2023/09/23 08:29:29;;;;;;;5.55;4.57;;;14.80;99.90;;;;;;5014841;28;20225;-83
2023/09/23 08:31:55;;;;;;;6.85;5.07;;;14.90;99.90;;;;;;5013134;28;20606;-81
2023/09/23 08:34:21;;;;;;;5.15;4.40;;;14.90;99.90;;;;;;5014729;28;20179;-81
2023/09/23 08:36:47;;;;;;;7.00;4.75;;;15.00;99.90;;;;;;5014469;28;20491;-82
2023/09/23 08:39:14;;;;;;;5.93;4.50;;;15.10;99.90;;;;;;5014420;28;20171;-82
2023/09/23 08:41:42;;;;;;;5.63;4.50;;;15.10;99.90;;;;;;5012914;28;20768;-82
2023/09/23 08:44:10;;;;;;;6.28;4.25;;;15.20;99.90;;;;;;5013154;28;20231;-83
2023/09/23 08:46:37;;;;;;;6.07;3.97;;;15.10;99.90;;;;;;5013100;28;20622;-83
2023/09/23 08:49:04;;;;;;;5.70;3.55;;;15.20;99.90;;;;;;5013151;28;20184;-82
2023/09/23 08:51:30;;;;;;;4.72;3.60;;;15.10;99.90;;;;;;5027260;28;20182;-81
2023/09/23 08:53:56;;;;;;;7.03;3.53;;;15.00;99.90;;;;;;5034231;28;20181;-83
2023/09/23 08:56:22;;;;;;;4.47;3.90;;;14.90;99.90;;;;;;5032891;28;20182;-82
2023/09/23 08:58:49;;;;;;;5.03;3.65;;;15.10;99.90;;;;;;5034022;28;20189;-80
2023/09/23 09:01:16;;;;;;;6.82;4.13;;;15.30;99.90;;;;;;5032359;28;20608;-81
2023/09/23 09:03:42;;;;;;;6.03;3.47;;;15.40;99.90;;;;;;5031881;28;20182;-84
2023/09/23 09:06:17;;;;;;;5.70;3.40;;;15.60;99.90;;;;;;5033595;28;20595;-82
2023/09/23 09:08:43;;;;;;;5.57;2.92;;;15.80;99.90;;;;;;5033757;28;20185;-82
2023/09/23 09:11:09;;;;;;;6.05;3.10;;;15.90;99.90;;;;;;5032630;28;20174;-81
2023/09/23 09:13:38;;;;;;;5.28;2.80;;;16.00;99.90;;;;;;5032479;28;20178;-82
2023/09/23 09:16:05;;;;;;;7.63;2.55;;;16.10;99.90;;;;;;5033842;28;20243;-83
2023/09/23 09:18:31;;;;;;;4.07;2.90;;;16.10;99.90;;;;;;5032377;28;20178;-82
2023/09/23 09:20:57;;;;;;;4.90;2.47;;;16.10;99.90;;;;;;5033344;28;20633;-82
2023/09/23 09:23:28;;;;;;;5.18;2.53;;;16.00;99.90;;;;;;5032436;28;20290;-82
2023/09/23 09:25:54;;;;;;;3.53;2.03;;;16.00;99.90;;;;;;5032249;28;20515;-82
2023/09/23 09:28:20;;;;;;;3.85;2.25;;;15.90;99.90;;;;;;5033288;28;20175;-82
2023/09/23 09:30:52;;;;;;;3.95;2.17;;;15.80;99.90;;;;;;5032658;28;20196;-83
2023/09/23 09:33:21;;;;;;;3.47;2.10;;;15.70;99.90;;;;;;5032346;28;20640;-83
2023/09/23 09:35:47;;;;;;;3.30;2.05;;;15.70;99.90;;;;;;5033408;28;20629;-84
2023/09/23 09:38:15;;;;;;;7.35;2.35;;;15.60;99.90;;;;;;5032326;28;20183;-82
2023/09/23 09:40:41;;;;;;;5.07;2.42;;;15.60;99.90;;;;;;5032313;28;20236;-83
2023/09/23 09:43:07;;;;;;;4.03;1.80;;;15.50;99.90;;;;;;5032547;28;20226;-83
2023/09/23 09:45:40;;;;;;;26.52;2.63;;;15.50;99.90;;;;;;5037616;28;20182;-82
2023/09/23 09:48:08;;;;;;;4.25;2.20;;;15.50;99.90;;;;;;5036192;28;20517;-83
2023/09/23 09:50:38;;;;;;;4.25;1.70;;;15.40;99.90;;;;;;5035930;28;20624;-82
2023/09/23 09:53:05;;;;;;;5.93;2.33;;;15.50;99.90;;;;;;5036099;28;20269;-82
2023/09/23 09:55:31;;;;;;;3.72;2.10;;;15.50;99.90;;;;;;5036122;28;20178;-82
2023/09/23 09:58:01;;;;;;;3.97;1.73;;;15.60;99.90;;;;;;5035956;28;20182;-82
2023/09/23 10:00:27;;;;;;;3.42;1.92;;;15.60;99.90;;;;;;5036733;28;20171;-83
2023/09/23 10:03:08;;;;;;;5.97;2.08;;;15.60;99.90;;;;;;5035862;28;20253;-82
2023/09/23 10:05:51;;;;;;;6.97;2.05;;;15.50;99.90;;;;;;5035737;28;20228;-83
2023/09/23 10:08:24;;;;;;;8.48;2.33;;;15.40;99.90;;;;;;5035787;28;20224;-83
2023/09/23 10:10:58;;;;;;;6.85;1.77;;;15.40;99.90;;;;;;5036884;28;20166;-83
2023/09/23 10:13:31;;;;;;;4.22;1.80;;;15.40;99.90;;;;;;5035772;28;20512;-84
2023/09/23 10:16:17;;;;;;;4.68;1.55;;;15.40;99.90;;;;;;5035792;28;20202;-85
2023/09/23 10:18:44;;;;;;;6.20;1.80;;;15.30;99.90;;;;;;5035589;28;20178;-83
2023/09/23 10:21:29;;;;;;;4.05;1.73;;;15.40;99.90;;;;;;5035254;28;20256;-82
2023/09/23 10:23:56;;;;;;;4.13;1.55;;;15.40;99.90;;;;;;5035618;28;20178;-83
2023/09/23 10:26:23;;;;;;;3.92;1.65;;;15.40;99.90;;;;;;5036813;28;20170;-83
2023/09/23 10:28:58;;;;;;;3.47;1.67;;;15.50;99.90;;;;;;5035489;28;20186;-83
2023/09/23 10:31:26;;;;;;;3.67;1.50;;;15.50;99.90;;;;;;5036428;28;20182;-86
2023/09/23 10:33:52;;;;;;;5.32;2.00;;;15.50;99.90;;;;;;5036568;28;20198;-83
2023/09/23 10:36:20;;;;;;;6.10;2.10;;;15.50;99.90;;;;;;5036597;28;20261;-82
2023/09/23 10:38:46;;;;;;;5.28;2.00;;;15.60;99.90;;;;;;5052067;28;20171;-84
2023/09/23 10:41:12;;;;;;;3.35;1.65;;;15.70;99.90;;;;;;5036552;28;20207;-82
2023/09/23 10:43:38;;;;;;;4.20;1.98;;;15.90;99.90;;;;;;5035034;28;20237;-83
2023/09/23 10:46:05;;;;;;;4.10;1.83;;;16.10;99.90;;;;;;5035255;28;20186;-83
2023/09/23 10:48:31;;;;;;;5.55;1.92;;;16.30;99.90;;;;;;5051662;28;20213;-82
2023/09/23 10:50:58;;;;;;;3.72;1.67;;;16.50;99.90;;;;;;5036309;28;20224;-84
2023/09/23 10:53:28;;;;;;;3.22;1.63;;;16.50;99.90;;;;;;5035061;28;20617;-85
2023/09/23 10:55:55;;;;;;;6.32;1.75;;;16.50;99.90;;;;;;5034828;28;20346;-84
2023/09/23 10:58:21;;;;;;;4.97;1.80;;;16.60;99.90;;;;;;5036191;28;20212;-83
2023/09/23 11:00:48;;;;;;;3.65;1.55;;;16.70;99.90;;;;;;5036388;28;20183;-84
2023/09/23 11:03:19;;;;;;;5.03;1.50;;;16.80;99.90;;;;;;5036096;28;20167;-84
2023/09/23 11:05:46;;;;;;;2.45;1.77;;;16.80;99.90;;;;;;5036051;28;20159;-84
2023/09/23 11:08:14;;;;;;;5.13;1.60;;;16.80;99.90;;;;;;5034755;28;20186;-82
2023/09/23 11:10:48;;;;;;;4.65;1.70;;;16.70;99.90;;;;;;5036150;28;20200;-84
2023/09/23 11:13:15;;;;;;;5.65;1.80;;;16.70;99.90;;;;;;5034883;28;20605;-83
2023/09/23 11:15:44;;;;;;;2.85;1.52;;;16.80;99.90;;;;;;5034930;28;20183;-85
2023/09/23 11:18:15;;;;;;;5.78;1.75;;;17.00;99.90;;;;;;5034497;28;20566;-84
2023/09/23 11:20:43;;;;;;;3.95;1.45;;;17.00;99.90;;;;;;5034263;28;20163;-85
2023/09/23 11:23:10;;;;;;;5.20;1.50;;;17.10;99.90;;;;;;5034539;28;20609;-84
2023/09/23 11:25:49;;;;;;;4.18;1.60;;;17.10;99.90;;;;;;5034349;28;20182;-83
2023/09/23 11:28:19;;;;;;;5.78;1.70;;;17.20;99.90;;;;;;5035760;28;20633;-83
2023/09/23 11:30:47;;;;;;;5.13;1.77;;;17.50;99.90;;;;;;5035622;28;20183;-83
2023/09/23 11:33:13;;;;;;;3.10;1.33;;;17.60;99.90;;;;;;5034518;28;20260;-84
2023/09/23 11:35:39;;;;;;;7.13;1.70;;;17.70;99.90;;;;;;5035628;28;20325;-82
2023/09/23 11:38:05;;;;;;;3.20;1.50;;;17.80;99.90;;;;;;5035810;28;20174;-83
2023/09/23 11:40:31;;;;;;;3.10;1.40;;;17.80;99.90;;;;;;5034031;28;20175;-83
2023/09/23 11:42:57;;;;;;;5.15;1.50;;;17.80;99.90;;;;;;5035154;28;20589;-82
2023/09/23 11:45:23;;;;;;;4.45;1.42;;;17.70;99.90;;;;;;5035599;28;20171;-85
2023/09/23 11:47:49;;;;;;;3.28;1.48;;;17.60;99.90;;;;;;5035338;28;20181;-83
2023/09/23 11:50:15;;;;;;;4.70;1.40;;;17.70;99.90;;;;;;5033264;28;20189;-82
2023/09/23 11:52:41;;;;;;;4.57;1.58;;;17.90;99.90;;;;;;5034086;28;20457;-85
2023/09/23 11:55:10;;;;;;;4.60;1.50;;;18.10;99.90;;;;;;5035700;28;20178;-84
2023/09/23 11:57:36;;;;;;;3.30;1.20;;;18.20;99.90;;;;;;5034636;28;20524;-88
2023/09/23 12:00:04;;;;;;;5.13;1.48;;;18.00;99.90;;;;;;5034598;28;20182;-87
2023/09/23 12:02:30;;;;;;;2.75;1.38;;;17.60;99.90;;;;;;5035805;28;20225;-88
2023/09/23 12:04:56;;;;;;;5.05;1.80;;;17.40;99.90;;;;;;5035748;28;20174;-85
2023/09/23 12:07:23;;;;;;;4.30;1.50;;;17.20;99.90;;;;;;5034620;28;20178;-86
2023/09/23 12:09:49;;;;;;;2.70;1.30;;;17.00;99.90;;;;;;5034207;28;20182;-85
2023/09/23 12:12:15;;;;;;;4.95;1.30;;;16.90;99.90;;;;;;5034305;28;20220;-86
2023/09/23 12:14:42;;;;;;;4.82;1.63;;;17.20;99.90;;;;;;5035128;28;20175;-84
2023/09/23 12:17:10;;;;;;;2.85;1.70;;;17.50;99.90;;;;;;5035108;28;20175;-85
2023/09/23 12:19:37;;;;;;;2.83;1.30;;;17.70;99.90;;;;;;5034094;28;20174;-86
2023/09/23 12:22:02;;;;;;;3.58;1.50;;;17.80;99.90;;;;;;5033229;28;20221;-85
2023/09/23 12:24:28;;;;;;;2.97;1.35;;;17.90;99.90;;;;;;5034987;28;20629;-87
2023/09/23 12:26:54;;;;;;;3.10;1.45;;;18.10;99.90;;;;;;5033641;28;20273;-87
2023/09/23 12:29:20;;;;;;;5.75;1.30;;;18.00;99.90;;;;;;5033437;28;20266;-85
2023/09/23 12:31:46;;;;;;;3.95;1.27;;;17.90;99.90;;;;;;5033509;28;20178;-85
2023/09/23 12:34:11;;;;;;;3.30;1.40;;;18.00;99.90;;;;;;5033455;28;20174;-86
2023/09/23 12:36:37;;;;;;;2.72;1.35;;;18.20;99.90;;;;;;5034475;28;20174;-84
2023/09/23 12:39:03;;;;;;;2.08;1.20;;;18.20;99.90;;;;;;5033618;28;20613;-87
2023/09/23 12:41:31;;;;;;;1.90;1.00;;;18.10;99.90;;;;;;5033532;28;20206;-86
2023/09/23 12:43:57;;;;;;;5.80;1.10;;;17.90;99.90;;;;;;5033270;28;20226;-84
2023/09/23 12:46:22;;;;;;;3.15;1.48;;;17.60;99.90;;;;;;5033052;28;20185;-83
2023/09/23 12:48:49;;;;;;;4.18;1.30;;;17.30;99.90;;;;;;5034053;28;20641;-82